sensor_id;sensor_type;location;lat;lon;timestamp;P1;durP1;ratioP1;P2;durP2;ratioP2
20073;SDS011;10197;54.282;10.078;2022-11-20T00:00:39;5.78;;;4.45;;
20073;SDS011;10197;54.282;10.078;2022-11-20T00:03:06;4.63;;;4.18;;
20073;SDS011;10197;54.282;10.078;2022-11-20T00:05:33;7.10;;;5.22;;
20073;SDS011;10197;54.282;10.078;2022-11-20T00:07:59;9.88;;;5.03;;
20073;SDS011;10197;54.282;10.078;2022-11-20T00:10:26;4.95;;;4.45;;
20073;SDS011;10197;54.282;10.078;2022-11-20T00:12:53;4.75;;;4.25;;
20073;SDS011;10197;54.282;10.078;2022-11-20T00:15:20;5.72;;;4.20;;
20073;SDS011;10197;54.282;10.078;2022-11-20T00:17:48;5.25;;;4.13;;
20073;SDS011;10197;54.282;10.078;2022-11-20T00:20:15;5.88;;;4.03;;
20073;SDS011;10197;54.282;10.078;2022-11-20T00:22:42;4.93;;;4.28;;
20073;SDS011;10197;54.282;10.078;2022-11-20T00:25:09;5.10;;;4.40;;
20073;SDS011;10197;54.282;10.078;2022-11-20T00:27:36;6.03;;;4.63;;
20073;SDS011;10197;54.282;10.078;2022-11-20T00:30:03;7.68;;;5.15;;
20073;SDS011;10197;54.282;10.078;2022-11-20T00:32:31;6.35;;;4.72;;
20073;SDS011;10197;54.282;10.078;2022-11-20T00:34:59;6.55;;;4.72;;
20073;SDS011;10197;54.282;10.078;2022-11-20T00:37:26;5.53;;;4.47;;
20073;SDS011;10197;54.282;10.078;2022-11-20T00:39:53;5.68;;;4.40;;
20073;SDS011;10197;54.282;10.078;2022-11-20T00:42:20;6.13;;;4.57;;
20073;SDS011;10197;54.282;10.078;2022-11-20T00:44:47;6.07;;;4.35;;
20073;SDS011;10197;54.282;10.078;2022-11-20T00:47:14;4.88;;;4.00;;
20073;SDS011;10197;54.282;10.078;2022-11-20T00:49:41;6.90;;;4.20;;
20073;SDS011;10197;54.282;10.078;2022-11-20T00:52:09;4.57;;;3.95;;
20073;SDS011;10197;54.282;10.078;2022-11-20T00:54:36;4.82;;;4.35;;
20073;SDS011;10197;54.282;10.078;2022-11-20T00:57:03;4.93;;;4.18;;
20073;SDS011;10197;54.282;10.078;2022-11-20T00:59:29;6.20;;;4.63;;
20073;SDS011;10197;54.282;10.078;2022-11-20T01:01:56;5.90;;;4.82;;
20073;SDS011;10197;54.282;10.078;2022-11-20T01:04:23;6.28;;;4.30;;
20073;SDS011;10197;54.282;10.078;2022-11-20T01:06:50;6.28;;;4.35;;
20073;SDS011;10197;54.282;10.078;2022-11-20T01:09:19;7.05;;;4.85;;
20073;SDS011;10197;54.282;10.078;2022-11-20T01:11:46;6.15;;;4.80;;
20073;SDS011;10197;54.282;10.078;2022-11-20T01:14:13;7.03;;;4.78;;
20073;SDS011;10197;54.282;10.078;2022-11-20T01:16:43;5.28;;;4.78;;
20073;SDS011;10197;54.282;10.078;2022-11-20T01:19:11;4.90;;;4.40;;
20073;SDS011;10197;54.282;10.078;2022-11-20T01:21:41;4.97;;;4.20;;
20073;SDS011;10197;54.282;10.078;2022-11-20T01:24:10;7.55;;;5.15;;
20073;SDS011;10197;54.282;10.078;2022-11-20T01:26:39;5.53;;;4.43;;
20073;SDS011;10197;54.282;10.078;2022-11-20T01:29:12;5.82;;;4.25;;
20073;SDS011;10197;54.282;10.078;2022-11-20T01:31:40;5.90;;;4.55;;
20073;SDS011;10197;54.282;10.078;2022-11-20T01:34:09;5.45;;;4.30;;
20073;SDS011;10197;54.282;10.078;2022-11-20T01:36:37;6.40;;;4.25;;
20073;SDS011;10197;54.282;10.078;2022-11-20T01:39:05;5.10;;;4.38;;
20073;SDS011;10197;54.282;10.078;2022-11-20T01:41:34;4.50;;;3.80;;
20073;SDS011;10197;54.282;10.078;2022-11-20T01:44:21;4.15;;;3.75;;
20073;SDS011;10197;54.282;10.078;2022-11-20T01:47:06;4.97;;;3.97;;
20073;SDS011;10197;54.282;10.078;2022-11-20T01:49:34;4.57;;;3.80;;
20073;SDS011;10197;54.282;10.078;2022-11-20T01:52:04;5.65;;;3.38;;
20073;SDS011;10197;54.282;10.078;2022-11-20T01:54:34;4.18;;;3.42;;
20073;SDS011;10197;54.282;10.078;2022-11-20T01:57:03;3.83;;;3.45;;
20073;SDS011;10197;54.282;10.078;2022-11-20T01:59:32;3.83;;;3.53;;
20073;SDS011;10197;54.282;10.078;2022-11-20T02:02:00;5.68;;;3.65;;
20073;SDS011;10197;54.282;10.078;2022-11-20T02:04:29;4.05;;;3.45;;
20073;SDS011;10197;54.282;10.078;2022-11-20T02:06:57;3.40;;;3.10;;
20073;SDS011;10197;54.282;10.078;2022-11-20T02:09:27;4.63;;;3.70;;
20073;SDS011;10197;54.282;10.078;2022-11-20T02:11:54;5.72;;;3.50;;
20073;SDS011;10197;54.282;10.078;2022-11-20T02:14:21;3.92;;;3.38;;
20073;SDS011;10197;54.282;10.078;2022-11-20T02:16:49;4.80;;;3.60;;
20073;SDS011;10197;54.282;10.078;2022-11-20T02:19:18;5.35;;;3.67;;
20073;SDS011;10197;54.282;10.078;2022-11-20T02:21:51;4.47;;;3.25;;
20073;SDS011;10197;54.282;10.078;2022-11-20T02:24:26;4.68;;;3.45;;
20073;SDS011;10197;54.282;10.078;2022-11-20T02:26:53;5.60;;;3.88;;
20073;SDS011;10197;54.282;10.078;2022-11-20T02:29:23;3.80;;;3.42;;
20073;SDS011;10197;54.282;10.078;2022-11-20T02:31:52;4.15;;;3.75;;
20073;SDS011;10197;54.282;10.078;2022-11-20T02:34:21;4.25;;;3.85;;
20073;SDS011;10197;54.282;10.078;2022-11-20T02:36:48;4.90;;;3.72;;
20073;SDS011;10197;54.282;10.078;2022-11-20T02:39:16;5.18;;;3.92;;
20073;SDS011;10197;54.282;10.078;2022-11-20T02:41:44;5.57;;;4.03;;
20073;SDS011;10197;54.282;10.078;2022-11-20T02:44:11;6.45;;;3.80;;
20073;SDS011;10197;54.282;10.078;2022-11-20T02:46:38;5.45;;;3.70;;
20073;SDS011;10197;54.282;10.078;2022-11-20T02:49:05;3.92;;;3.47;;
20073;SDS011;10197;54.282;10.078;2022-11-20T02:51:32;5.53;;;3.92;;
20073;SDS011;10197;54.282;10.078;2022-11-20T02:54:00;4.38;;;3.72;;
20073;SDS011;10197;54.282;10.078;2022-11-20T02:56:28;4.78;;;3.78;;
20073;SDS011;10197;54.282;10.078;2022-11-20T02:58:56;5.10;;;4.10;;
20073;SDS011;10197;54.282;10.078;2022-11-20T03:01:23;6.03;;;3.90;;
20073;SDS011;10197;54.282;10.078;2022-11-20T03:03:50;4.25;;;3.83;;
20073;SDS011;10197;54.282;10.078;2022-11-20T03:06:19;8.02;;;4.00;;
20073;SDS011;10197;54.282;10.078;2022-11-20T03:08:46;4.13;;;3.72;;
20073;SDS011;10197;54.282;10.078;2022-11-20T03:11:13;6.55;;;4.20;;
20073;SDS011;10197;54.282;10.078;2022-11-20T03:13:40;5.28;;;3.55;;
20073;SDS011;10197;54.282;10.078;2022-11-20T03:18:39;4.82;;;3.90;;
20073;SDS011;10197;54.282;10.078;2022-11-20T03:21:06;4.95;;;4.00;;
20073;SDS011;10197;54.282;10.078;2022-11-20T03:23:34;4.78;;;3.90;;
20073;SDS011;10197;54.282;10.078;2022-11-20T03:26:11;5.72;;;4.10;;
20073;SDS011;10197;54.282;10.078;2022-11-20T03:28:39;4.82;;;3.92;;
20073;SDS011;10197;54.282;10.078;2022-11-20T03:31:07;5.65;;;3.88;;
20073;SDS011;10197;54.282;10.078;2022-11-20T03:33:36;6.28;;;3.88;;
20073;SDS011;10197;54.282;10.078;2022-11-20T03:36:05;7.05;;;4.10;;
20073;SDS011;10197;54.282;10.078;2022-11-20T03:38:34;5.97;;;4.18;;
20073;SDS011;10197;54.282;10.078;2022-11-20T03:41:01;7.32;;;3.85;;
20073;SDS011;10197;54.282;10.078;2022-11-20T03:43:29;5.20;;;3.90;;
20073;SDS011;10197;54.282;10.078;2022-11-20T03:45:56;5.38;;;4.30;;
20073;SDS011;10197;54.282;10.078;2022-11-20T03:48:24;4.82;;;3.97;;
20073;SDS011;10197;54.282;10.078;2022-11-20T03:50:53;9.82;;;4.55;;
20073;SDS011;10197;54.282;10.078;2022-11-20T03:53:20;4.35;;;3.90;;
20073;SDS011;10197;54.282;10.078;2022-11-20T03:55:50;5.70;;;3.55;;
20073;SDS011;10197;54.282;10.078;2022-11-20T03:58:17;4.95;;;3.70;;
20073;SDS011;10197;54.282;10.078;2022-11-20T04:00:44;5.45;;;4.18;;
20073;SDS011;10197;54.282;10.078;2022-11-20T04:03:11;5.18;;;3.80;;
20073;SDS011;10197;54.282;10.078;2022-11-20T04:05:38;6.38;;;4.13;;
20073;SDS011;10197;54.282;10.078;2022-11-20T04:08:06;6.47;;;3.92;;
20073;SDS011;10197;54.282;10.078;2022-11-20T04:10:33;4.85;;;4.18;;
20073;SDS011;10197;54.282;10.078;2022-11-20T04:13:01;4.07;;;3.67;;
20073;SDS011;10197;54.282;10.078;2022-11-20T04:15:27;4.18;;;3.78;;
20073;SDS011;10197;54.282;10.078;2022-11-20T04:17:54;5.32;;;3.65;;
20073;SDS011;10197;54.282;10.078;2022-11-20T04:20:21;7.80;;;3.90;;
20073;SDS011;10197;54.282;10.078;2022-11-20T04:22:48;4.35;;;3.58;;
20073;SDS011;10197;54.282;10.078;2022-11-20T04:25:17;5.60;;;3.70;;
20073;SDS011;10197;54.282;10.078;2022-11-20T04:27:45;8.85;;;4.25;;
20073;SDS011;10197;54.282;10.078;2022-11-20T04:30:12;5.88;;;4.13;;
20073;SDS011;10197;54.282;10.078;2022-11-20T04:32:39;4.63;;;3.63;;
20073;SDS011;10197;54.282;10.078;2022-11-20T04:35:07;4.55;;;4.00;;
20073;SDS011;10197;54.282;10.078;2022-11-20T04:37:34;4.93;;;4.07;;
20073;SDS011;10197;54.282;10.078;2022-11-20T04:40:01;8.38;;;4.85;;
20073;SDS011;10197;54.282;10.078;2022-11-20T04:42:30;4.30;;;3.90;;
20073;SDS011;10197;54.282;10.078;2022-11-20T04:44:57;5.40;;;4.70;;
20073;SDS011;10197;54.282;10.078;2022-11-20T04:47:24;5.03;;;4.53;;
20073;SDS011;10197;54.282;10.078;2022-11-20T04:49:51;6.15;;;4.50;;
20073;SDS011;10197;54.282;10.078;2022-11-20T04:52:18;6.18;;;4.50;;
20073;SDS011;10197;54.282;10.078;2022-11-20T04:54:45;5.40;;;4.72;;
20073;SDS011;10197;54.282;10.078;2022-11-20T04:57:13;5.47;;;4.57;;
20073;SDS011;10197;54.282;10.078;2022-11-20T04:59:42;5.30;;;4.45;;
20073;SDS011;10197;54.282;10.078;2022-11-20T05:02:09;5.30;;;4.22;;
20073;SDS011;10197;54.282;10.078;2022-11-20T05:04:37;5.10;;;3.92;;
20073;SDS011;10197;54.282;10.078;2022-11-20T05:07:04;5.07;;;4.38;;
20073;SDS011;10197;54.282;10.078;2022-11-20T05:09:31;4.55;;;4.00;;
20073;SDS011;10197;54.282;10.078;2022-11-20T05:11:58;4.20;;;3.80;;
20073;SDS011;10197;54.282;10.078;2022-11-20T05:14:25;4.00;;;3.60;;
20073;SDS011;10197;54.282;10.078;2022-11-20T05:16:53;4.88;;;4.00;;
20073;SDS011;10197;54.282;10.078;2022-11-20T05:19:20;3.97;;;3.42;;
20073;SDS011;10197;54.282;10.078;2022-11-20T05:21:47;4.45;;;4.05;;
20073;SDS011;10197;54.282;10.078;2022-11-20T05:24:14;4.20;;;3.70;;
20073;SDS011;10197;54.282;10.078;2022-11-20T05:26:41;4.50;;;4.10;;
20073;SDS011;10197;54.282;10.078;2022-11-20T05:29:09;3.85;;;3.55;;
20073;SDS011;10197;54.282;10.078;2022-11-20T05:31:38;4.15;;;3.75;;
20073;SDS011;10197;54.282;10.078;2022-11-20T05:34:06;3.83;;;3.47;;
20073;SDS011;10197;54.282;10.078;2022-11-20T05:36:34;3.75;;;3.45;;
20073;SDS011;10197;54.282;10.078;2022-11-20T05:39:01;3.20;;;3.00;;
20073;SDS011;10197;54.282;10.078;2022-11-20T05:41:28;3.35;;;3.05;;
20073;SDS011;10197;54.282;10.078;2022-11-20T05:43:55;3.53;;;3.22;;
20073;SDS011;10197;54.282;10.078;2022-11-20T05:46:23;3.50;;;3.20;;
20073;SDS011;10197;54.282;10.078;2022-11-20T05:48:50;3.60;;;3.28;;
20073;SDS011;10197;54.282;10.078;2022-11-20T05:51:19;4.00;;;3.70;;
20073;SDS011;10197;54.282;10.078;2022-11-20T05:53:46;3.95;;;3.65;;
20073;SDS011;10197;54.282;10.078;2022-11-20T05:56:13;3.80;;;3.50;;
20073;SDS011;10197;54.282;10.078;2022-11-20T05:58:41;4.07;;;3.78;;
20073;SDS011;10197;54.282;10.078;2022-11-20T06:01:09;4.63;;;4.07;;
20073;SDS011;10197;54.282;10.078;2022-11-20T06:03:40;4.47;;;4.07;;
20073;SDS011;10197;54.282;10.078;2022-11-20T06:06:11;4.22;;;3.83;;
20073;SDS011;10197;54.282;10.078;2022-11-20T06:08:40;4.43;;;4.03;;
20073;SDS011;10197;54.282;10.078;2022-11-20T06:11:07;5.90;;;4.97;;
20073;SDS011;10197;54.282;10.078;2022-11-20T06:13:36;6.55;;;4.75;;
20073;SDS011;10197;54.282;10.078;2022-11-20T06:16:03;7.00;;;5.35;;
20073;SDS011;10197;54.282;10.078;2022-11-20T06:18:31;7.38;;;4.20;;
20073;SDS011;10197;54.282;10.078;2022-11-20T06:21:01;5.13;;;4.50;;
20073;SDS011;10197;54.282;10.078;2022-11-20T06:23:30;6.07;;;5.13;;
20073;SDS011;10197;54.282;10.078;2022-11-20T06:26:00;6.30;;;5.63;;
20073;SDS011;10197;54.282;10.078;2022-11-20T06:28:28;6.40;;;5.50;;
20073;SDS011;10197;54.282;10.078;2022-11-20T06:30:54;5.47;;;4.97;;
20073;SDS011;10197;54.282;10.078;2022-11-20T06:33:21;6.38;;;5.13;;
20073;SDS011;10197;54.282;10.078;2022-11-20T06:35:48;5.97;;;5.38;;
20073;SDS011;10197;54.282;10.078;2022-11-20T06:38:15;6.63;;;5.03;;
20073;SDS011;10197;54.282;10.078;2022-11-20T06:40:42;5.88;;;5.25;;
20073;SDS011;10197;54.282;10.078;2022-11-20T06:43:10;5.68;;;5.13;;
20073;SDS011;10197;54.282;10.078;2022-11-20T06:45:37;5.47;;;4.88;;
20073;SDS011;10197;54.282;10.078;2022-11-20T06:48:04;5.43;;;4.93;;
20073;SDS011;10197;54.282;10.078;2022-11-20T06:50:31;6.78;;;5.60;;
20073;SDS011;10197;54.282;10.078;2022-11-20T06:53:00;6.93;;;5.20;;
20073;SDS011;10197;54.282;10.078;2022-11-20T06:55:28;5.40;;;4.88;;
20073;SDS011;10197;54.282;10.078;2022-11-20T06:58:12;5.78;;;4.95;;
20073;SDS011;10197;54.282;10.078;2022-11-20T07:00:40;5.88;;;5.10;;
20073;SDS011;10197;54.282;10.078;2022-11-20T07:03:08;5.80;;;5.20;;
20073;SDS011;10197;54.282;10.078;2022-11-20T07:05:36;5.65;;;5.05;;
20073;SDS011;10197;54.282;10.078;2022-11-20T07:08:04;5.38;;;4.88;;
20073;SDS011;10197;54.282;10.078;2022-11-20T07:10:31;8.27;;;5.90;;
20073;SDS011;10197;54.282;10.078;2022-11-20T07:12:58;11.55;;;7.10;;
20073;SDS011;10197;54.282;10.078;2022-11-20T07:15:27;12.32;;;6.10;;
20073;SDS011;10197;54.282;10.078;2022-11-20T07:17:54;7.40;;;5.93;;
20073;SDS011;10197;54.282;10.078;2022-11-20T07:20:20;6.45;;;5.82;;
20073;SDS011;10197;54.282;10.078;2022-11-20T07:22:52;5.72;;;5.05;;
20073;SDS011;10197;54.282;10.078;2022-11-20T07:25:20;5.28;;;4.78;;
20073;SDS011;10197;54.282;10.078;2022-11-20T07:27:47;5.18;;;4.07;;
20073;SDS011;10197;54.282;10.078;2022-11-20T07:30:13;4.93;;;4.50;;
20073;SDS011;10197;54.282;10.078;2022-11-20T07:32:42;3.92;;;3.53;;
20073;SDS011;10197;54.282;10.078;2022-11-20T07:35:09;5.18;;;3.90;;
20073;SDS011;10197;54.282;10.078;2022-11-20T07:37:35;4.38;;;3.75;;
20073;SDS011;10197;54.282;10.078;2022-11-20T07:40:03;4.28;;;3.88;;
20073;SDS011;10197;54.282;10.078;2022-11-20T07:42:30;4.00;;;3.60;;
20073;SDS011;10197;54.282;10.078;2022-11-20T07:44:57;4.15;;;3.75;;
20073;SDS011;10197;54.282;10.078;2022-11-20T07:47:24;4.63;;;4.20;;
20073;SDS011;10197;54.282;10.078;2022-11-20T07:49:53;4.15;;;3.75;;
20073;SDS011;10197;54.282;10.078;2022-11-20T07:52:20;5.80;;;5.30;;
20073;SDS011;10197;54.282;10.078;2022-11-20T07:54:48;7.30;;;5.07;;
20073;SDS011;10197;54.282;10.078;2022-11-20T07:57:15;5.30;;;4.80;;
20073;SDS011;10197;54.282;10.078;2022-11-20T07:59:42;4.78;;;4.03;;
20073;SDS011;10197;54.282;10.078;2022-11-20T08:02:11;4.38;;;3.83;;
20073;SDS011;10197;54.282;10.078;2022-11-20T08:04:38;3.97;;;3.67;;
20073;SDS011;10197;54.282;10.078;2022-11-20T08:07:06;4.00;;;3.70;;
20073;SDS011;10197;54.282;10.078;2022-11-20T08:09:33;4.22;;;3.80;;
20073;SDS011;10197;54.282;10.078;2022-11-20T08:12:00;3.50;;;3.17;;
20073;SDS011;10197;54.282;10.078;2022-11-20T08:14:44;3.20;;;2.90;;
20073;SDS011;10197;54.282;10.078;2022-11-20T08:17:11;4.45;;;3.35;;
20073;SDS011;10197;54.282;10.078;2022-11-20T08:19:39;2.90;;;2.70;;
20073;SDS011;10197;54.282;10.078;2022-11-20T08:22:07;2.97;;;2.78;;
20073;SDS011;10197;54.282;10.078;2022-11-20T08:24:34;3.55;;;2.75;;
20073;SDS011;10197;54.282;10.078;2022-11-20T08:27:01;3.60;;;3.30;;
20073;SDS011;10197;54.282;10.078;2022-11-20T08:29:28;4.60;;;3.70;;
20073;SDS011;10197;54.282;10.078;2022-11-20T08:31:55;3.85;;;3.55;;
20073;SDS011;10197;54.282;10.078;2022-11-20T08:34:22;4.00;;;3.60;;
20073;SDS011;10197;54.282;10.078;2022-11-20T08:36:49;3.22;;;2.65;;
20073;SDS011;10197;54.282;10.078;2022-11-20T08:39:17;3.03;;;2.50;;
20073;SDS011;10197;54.282;10.078;2022-11-20T08:41:44;3.13;;;2.80;;
20073;SDS011;10197;54.282;10.078;2022-11-20T08:44:11;3.22;;;2.92;;
20073;SDS011;10197;54.282;10.078;2022-11-20T08:46:38;2.90;;;2.55;;
20073;SDS011;10197;54.282;10.078;2022-11-20T08:49:06;3.80;;;2.95;;
20073;SDS011;10197;54.282;10.078;2022-11-20T08:51:34;3.00;;;2.80;;
20073;SDS011;10197;54.282;10.078;2022-11-20T08:54:02;3.35;;;2.30;;
20073;SDS011;10197;54.282;10.078;2022-11-20T08:56:30;3.20;;;2.90;;
20073;SDS011;10197;54.282;10.078;2022-11-20T08:58:57;3.90;;;3.60;;
20073;SDS011;10197;54.282;10.078;2022-11-20T09:01:25;2.70;;;2.50;;
20073;SDS011;10197;54.282;10.078;2022-11-20T09:03:54;2.92;;;2.40;;
20073;SDS011;10197;54.282;10.078;2022-11-20T09:06:22;2.50;;;2.30;;
20073;SDS011;10197;54.282;10.078;2022-11-20T09:08:51;7.43;;;5.85;;
20073;SDS011;10197;54.282;10.078;2022-11-20T09:11:18;6.57;;;5.57;;
20073;SDS011;10197;54.282;10.078;2022-11-20T09:13:46;6.07;;;5.15;;
20073;SDS011;10197;54.282;10.078;2022-11-20T09:16:13;4.88;;;3.97;;
20073;SDS011;10197;54.282;10.078;2022-11-20T09:18:40;4.82;;;4.38;;
20073;SDS011;10197;54.282;10.078;2022-11-20T09:21:09;7.05;;;4.93;;
20073;SDS011;10197;54.282;10.078;2022-11-20T09:23:38;5.72;;;4.43;;
20073;SDS011;10197;54.282;10.078;2022-11-20T09:26:06;23.85;;;19.52;;
20073;SDS011;10197;54.282;10.078;2022-11-20T09:28:35;20.70;;;15.63;;
20073;SDS011;10197;54.282;10.078;2022-11-20T09:31:05;9.15;;;7.65;;
20073;SDS011;10197;54.282;10.078;2022-11-20T09:33:33;12.45;;;8.80;;
20073;SDS011;10197;54.282;10.078;2022-11-20T09:36:00;17.15;;;11.68;;
20073;SDS011;10197;54.282;10.078;2022-11-20T09:38:28;9.77;;;7.60;;
20073;SDS011;10197;54.282;10.078;2022-11-20T09:40:56;5.07;;;3.97;;
20073;SDS011;10197;54.282;10.078;2022-11-20T09:43:28;4.97;;;3.55;;
20073;SDS011;10197;54.282;10.078;2022-11-20T09:46:05;4.78;;;3.83;;
20073;SDS011;10197;54.282;10.078;2022-11-20T09:48:48;3.40;;;3.10;;
20073;SDS011;10197;54.282;10.078;2022-11-20T09:51:25;18.20;;;10.80;;
20073;SDS011;10197;54.282;10.078;2022-11-20T09:54:00;16.50;;;9.73;;
20073;SDS011;10197;54.282;10.078;2022-11-20T09:56:36;58.25;;;27.65;;
20073;SDS011;10197;54.282;10.078;2022-11-20T09:59:06;34.17;;;17.88;;
20073;SDS011;10197;54.282;10.078;2022-11-20T10:01:36;8.88;;;6.15;;
20073;SDS011;10197;54.282;10.078;2022-11-20T10:04:08;5.15;;;4.00;;
20073;SDS011;10197;54.282;10.078;2022-11-20T10:06:37;5.07;;;4.10;;
20073;SDS011;10197;54.282;10.078;2022-11-20T10:09:14;5.78;;;3.63;;
20073;SDS011;10197;54.282;10.078;2022-11-20T10:11:46;4.95;;;3.17;;
20073;SDS011;10197;54.282;10.078;2022-11-20T10:14:18;3.22;;;2.92;;
20073;SDS011;10197;54.282;10.078;2022-11-20T10:16:55;3.65;;;2.88;;
20073;SDS011;10197;54.282;10.078;2022-11-20T10:19:31;4.45;;;2.60;;
20073;SDS011;10197;54.282;10.078;2022-11-20T10:22:10;4.82;;;3.40;;
20073;SDS011;10197;54.282;10.078;2022-11-20T10:24:45;5.13;;;3.30;;
20073;SDS011;10197;54.282;10.078;2022-11-20T10:27:27;3.45;;;3.15;;
20073;SDS011;10197;54.282;10.078;2022-11-20T10:30:07;4.57;;;4.03;;
20073;SDS011;10197;54.282;10.078;2022-11-20T10:32:37;3.60;;;3.35;;
20073;SDS011;10197;54.282;10.078;2022-11-20T10:35:07;4.45;;;3.17;;
20073;SDS011;10197;54.282;10.078;2022-11-20T10:37:44;4.55;;;2.97;;
20073;SDS011;10197;54.282;10.078;2022-11-20T10:40:18;4.55;;;2.97;;
20073;SDS011;10197;54.282;10.078;2022-11-20T10:42:48;3.35;;;2.95;;
20073;SDS011;10197;54.282;10.078;2022-11-20T10:45:21;3.35;;;3.05;;
20073;SDS011;10197;54.282;10.078;2022-11-20T10:48:04;4.60;;;3.10;;
20073;SDS011;10197;54.282;10.078;2022-11-20T10:50:37;4.70;;;3.05;;
20073;SDS011;10197;54.282;10.078;2022-11-20T10:53:12;3.60;;;3.05;;
20073;SDS011;10197;54.282;10.078;2022-11-20T10:55:45;5.95;;;3.75;;
20073;SDS011;10197;54.282;10.078;2022-11-20T10:58:16;4.43;;;3.47;;
20073;SDS011;10197;54.282;10.078;2022-11-20T11:00:48;3.78;;;3.08;;
20073;SDS011;10197;54.282;10.078;2022-11-20T11:03:22;4.07;;;3.67;;
20073;SDS011;10197;54.282;10.078;2022-11-20T11:05:54;4.07;;;3.67;;
20073;SDS011;10197;54.282;10.078;2022-11-20T11:08:26;5.95;;;5.30;;
20073;SDS011;10197;54.282;10.078;2022-11-20T11:10:55;6.10;;;3.75;;
20073;SDS011;10197;54.282;10.078;2022-11-20T11:13:25;5.65;;;4.07;;
20073;SDS011;10197;54.282;10.078;2022-11-20T11:15:53;7.55;;;4.60;;
20073;SDS011;10197;54.282;10.078;2022-11-20T11:18:25;4.35;;;3.95;;
20073;SDS011;10197;54.282;10.078;2022-11-20T11:20:54;4.45;;;3.50;;
20073;SDS011;10197;54.282;10.078;2022-11-20T11:23:31;4.68;;;3.70;;
20073;SDS011;10197;54.282;10.078;2022-11-20T11:26:00;4.75;;;3.90;;
20073;SDS011;10197;54.282;10.078;2022-11-20T11:28:27;4.47;;;3.50;;
20073;SDS011;10197;54.282;10.078;2022-11-20T11:30:55;4.03;;;3.70;;
20073;SDS011;10197;54.282;10.078;2022-11-20T11:33:23;4.93;;;3.90;;
20073;SDS011;10197;54.282;10.078;2022-11-20T11:35:52;6.28;;;3.60;;
20073;SDS011;10197;54.282;10.078;2022-11-20T11:38:23;3.95;;;3.60;;
20073;SDS011;10197;54.282;10.078;2022-11-20T11:40:56;3.95;;;3.60;;
20073;SDS011;10197;54.282;10.078;2022-11-20T11:43:23;6.30;;;4.45;;
20073;SDS011;10197;54.282;10.078;2022-11-20T11:46:23;5.07;;;4.57;;
20073;SDS011;10197;54.282;10.078;2022-11-20T11:48:57;5.75;;;4.07;;
20073;SDS011;10197;54.282;10.078;2022-11-20T11:51:26;4.20;;;3.63;;
20073;SDS011;10197;54.282;10.078;2022-11-20T11:53:55;5.70;;;4.90;;
20073;SDS011;10197;54.282;10.078;2022-11-20T11:56:23;4.45;;;4.05;;
20073;SDS011;10197;54.282;10.078;2022-11-20T11:58:51;4.13;;;3.70;;
20073;SDS011;10197;54.282;10.078;2022-11-20T12:01:22;4.93;;;4.43;;
20073;SDS011;10197;54.282;10.078;2022-11-20T12:03:55;3.90;;;3.42;;
20073;SDS011;10197;54.282;10.078;2022-11-20T12:06:29;10.18;;;7.07;;
20073;SDS011;10197;54.282;10.078;2022-11-20T12:08:57;9.93;;;7.35;;
20073;SDS011;10197;54.282;10.078;2022-11-20T12:11:29;28.88;;;17.38;;
20073;SDS011;10197;54.282;10.078;2022-11-20T12:13:58;7.85;;;5.15;;
20073;SDS011;10197;54.282;10.078;2022-11-20T12:16:30;7.22;;;5.85;;
20073;SDS011;10197;54.282;10.078;2022-11-20T12:19:03;5.30;;;4.32;;
20073;SDS011;10197;54.282;10.078;2022-11-20T12:21:36;4.78;;;4.03;;
20073;SDS011;10197;54.282;10.078;2022-11-20T12:24:19;4.72;;;3.60;;
20073;SDS011;10197;54.282;10.078;2022-11-20T12:27:11;4.22;;;3.20;;
20073;SDS011;10197;54.282;10.078;2022-11-20T12:29:51;3.85;;;3.38;;
20073;SDS011;10197;54.282;10.078;2022-11-20T12:32:36;5.82;;;4.85;;
20073;SDS011;10197;54.282;10.078;2022-11-20T12:35:30;4.47;;;3.88;;
20073;SDS011;10197;54.282;10.078;2022-11-20T12:38:08;4.65;;;3.70;;
20073;SDS011;10197;54.282;10.078;2022-11-20T12:40:54;3.25;;;2.95;;
20073;SDS011;10197;54.282;10.078;2022-11-20T12:43:24;4.35;;;3.20;;
20073;SDS011;10197;54.282;10.078;2022-11-20T12:46:13;3.15;;;2.90;;
20073;SDS011;10197;54.282;10.078;2022-11-20T12:48:52;6.13;;;3.38;;
20073;SDS011;10197;54.282;10.078;2022-11-20T12:51:47;2.53;;;2.20;;
20073;SDS011;10197;54.282;10.078;2022-11-20T12:54:35;6.32;;;3.10;;
20073;SDS011;10197;54.282;10.078;2022-11-20T12:57:15;3.35;;;3.00;;
20073;SDS011;10197;54.282;10.078;2022-11-20T12:59:48;4.00;;;3.25;;
20073;SDS011;10197;54.282;10.078;2022-11-20T13:02:24;2.90;;;2.65;;
20073;SDS011;10197;54.282;10.078;2022-11-20T13:05:06;2.97;;;2.67;;
20073;SDS011;10197;54.282;10.078;2022-11-20T13:07:44;2.72;;;2.53;;
20073;SDS011;10197;54.282;10.078;2022-11-20T13:10:14;5.22;;;3.45;;
20073;SDS011;10197;54.282;10.078;2022-11-20T13:12:45;2.92;;;2.70;;
20073;SDS011;10197;54.282;10.078;2022-11-20T13:15:17;5.05;;;3.22;;
20073;SDS011;10197;54.282;10.078;2022-11-20T13:17:54;4.32;;;3.25;;
20073;SDS011;10197;54.282;10.078;2022-11-20T13:20:22;4.90;;;2.97;;
20073;SDS011;10197;54.282;10.078;2022-11-20T13:22:51;3.75;;;3.10;;
20073;SDS011;10197;54.282;10.078;2022-11-20T13:25:23;6.57;;;3.03;;
20073;SDS011;10197;54.282;10.078;2022-11-20T13:27:51;2.85;;;2.38;;
20073;SDS011;10197;54.282;10.078;2022-11-20T13:30:19;5.72;;;3.17;;
20073;SDS011;10197;54.282;10.078;2022-11-20T13:32:50;4.28;;;3.10;;
20073;SDS011;10197;54.282;10.078;2022-11-20T13:35:29;3.30;;;3.00;;
20073;SDS011;10197;54.282;10.078;2022-11-20T13:38:03;3.33;;;2.40;;
20073;SDS011;10197;54.282;10.078;2022-11-20T13:40:31;4.00;;;2.42;;
20073;SDS011;10197;54.282;10.078;2022-11-20T13:43:04;2.88;;;2.20;;
20073;SDS011;10197;54.282;10.078;2022-11-20T13:45:37;4.10;;;2.90;;
20073;SDS011;10197;54.282;10.078;2022-11-20T13:48:04;4.38;;;3.30;;
20073;SDS011;10197;54.282;10.078;2022-11-20T13:50:46;3.47;;;2.75;;
20073;SDS011;10197;54.282;10.078;2022-11-20T13:53:32;3.58;;;2.85;;
20073;SDS011;10197;54.282;10.078;2022-11-20T13:56:10;3.42;;;2.97;;
20073;SDS011;10197;54.282;10.078;2022-11-20T13:58:45;2.95;;;2.55;;
20073;SDS011;10197;54.282;10.078;2022-11-20T14:01:19;2.83;;;2.60;;
20073;SDS011;10197;54.282;10.078;2022-11-20T14:03:47;3.22;;;2.28;;
20073;SDS011;10197;54.282;10.078;2022-11-20T14:06:16;2.58;;;2.38;;
20073;SDS011;10197;54.282;10.078;2022-11-20T14:08:49;3.22;;;2.53;;
20073;SDS011;10197;54.282;10.078;2022-11-20T14:11:17;3.47;;;2.25;;
20073;SDS011;10197;54.282;10.078;2022-11-20T14:13:53;2.60;;;2.40;;
20073;SDS011;10197;54.282;10.078;2022-11-20T14:16:22;3.72;;;2.53;;
20073;SDS011;10197;54.282;10.078;2022-11-20T14:18:49;3.20;;;2.70;;
20073;SDS011;10197;54.282;10.078;2022-11-20T14:21:23;3.53;;;2.70;;
20073;SDS011;10197;54.282;10.078;2022-11-20T14:24:04;2.60;;;2.35;;
20073;SDS011;10197;54.282;10.078;2022-11-20T14:26:31;2.70;;;2.50;;
20073;SDS011;10197;54.282;10.078;2022-11-20T14:28:59;3.22;;;2.92;;
20073;SDS011;10197;54.282;10.078;2022-11-20T14:31:26;3.13;;;2.58;;
20073;SDS011;10197;54.282;10.078;2022-11-20T14:33:54;3.25;;;2.78;;
20073;SDS011;10197;54.282;10.078;2022-11-20T14:36:22;4.45;;;3.25;;
20073;SDS011;10197;54.282;10.078;2022-11-20T14:38:50;4.43;;;3.40;;
20073;SDS011;10197;54.282;10.078;2022-11-20T14:41:19;3.55;;;3.25;;
20073;SDS011;10197;54.282;10.078;2022-11-20T14:43:47;3.40;;;3.10;;
20073;SDS011;10197;54.282;10.078;2022-11-20T14:46:17;3.28;;;2.75;;
20073;SDS011;10197;54.282;10.078;2022-11-20T14:48:45;5.35;;;3.42;;
20073;SDS011;10197;54.282;10.078;2022-11-20T14:51:23;7.07;;;5.05;;